Time;durP1;ratioP1;P1;durP2;ratioP2;P2;SDS_P1;SDS_P2;PMS_P1;PMS_P2;Temp;Humidity;BMP_temperature;BMP_pressure;BME280_temperature;BME280_humidity;BME280_pressure;Samples;Min_cycle;Max_cycle;Signal;HPM_P1;HPM_P2
2022/06/20 00:01:01;;;;;;;2.23;2.13;;;;;;;20.52;87.13;99501.00;5050147;28;20206;-67
2022/06/20 00:03:32;;;;;;;2.80;2.70;;;;;;;20.47;86.76;99503.91;5050599;28;20199;-66
2022/06/20 00:05:59;;;;;;;2.30;2.20;;;;;;;20.43;86.48;99505.06;5049687;28;20252;-67
2022/06/20 00:08:25;;;;;;;2.13;2.13;;;;;;;20.39;86.62;99500.97;5050639;28;20218;-67
2022/06/20 00:10:53;;;;;;;2.60;2.50;;;;;;;20.36;86.36;99494.22;5050609;28;20198;-67
2022/06/20 00:13:22;;;;;;;2.70;2.27;;;;;;;20.29;86.85;99499.97;5050527;28;20226;-67
2022/06/20 00:15:51;;;;;;;2.63;2.53;;;;;;;20.26;86.92;99487.09;5050661;28;20205;-67
2022/06/20 00:18:20;;;;;;;3.33;3.07;;;;;;;20.25;86.72;99485.47;5050851;28;20206;-67
2022/06/20 00:20:47;;;;;;;2.90;2.70;;;;;;;20.22;87.12;99481.31;5049297;28;20198;-67
2022/06/20 00:23:13;;;;;;;3.10;2.83;;;;;;;20.20;87.80;99482.31;5039752;28;20235;-67
2022/06/20 00:25:41;;;;;;;3.57;3.37;;;;;;;20.18;87.81;99479.84;5030795;28;20574;-66
2022/06/20 00:28:09;;;;;;;4.67;3.10;;;;;;;20.18;87.98;99486.81;5031030;28;20206;-67
2022/06/20 00:30:37;;;;;;;3.87;3.27;;;;;;;20.12;88.38;99475.06;5032133;28;20682;-66
2022/06/20 00:33:04;;;;;;;2.80;2.60;;;;;;;20.08;88.16;99477.97;5034821;28;20222;-67
2022/06/20 00:35:34;;;;;;;5.10;2.33;;;;;;;20.07;88.06;99478.88;5034642;28;20202;-67
2022/06/20 00:38:03;;;;;;;3.43;2.10;;;;;;;19.99;88.48;99473.38;5034310;28;20233;-67
2022/06/20 00:40:33;;;;;;;2.10;2.00;;;;;;;19.90;89.11;99475.66;5034356;28;20218;-67
2022/06/20 00:43:01;;;;;;;3.27;1.90;;;;;;;19.86;89.34;99474.22;5034548;28;20212;-67
2022/06/20 00:45:34;;;;;;;3.23;2.40;;;;;;;19.83;90.05;99466.59;5052352;28;20204;-67
2022/06/20 00:48:06;;;;;;;2.57;2.47;;;;;;;19.82;90.60;99467.53;5054131;28;20202;-63
2022/06/20 00:50:34;;;;;;;1.93;1.87;;;;;;;19.82;90.68;99477.09;5054328;28;20259;-62
2022/06/20 00:53:09;;;;;;;2.73;2.40;;;;;;;19.65;90.92;99444.41;5054080;28;20650;-67
2022/06/20 00:55:40;;;;;;;2.57;2.47;;;;;;;19.71;91.45;99457.00;5054246;28;20198;-67
2022/06/20 00:58:11;;;;;;;2.17;2.07;;;;;;;19.77;91.91;99474.81;5054026;28;20204;-66
2022/06/20 01:00:40;;;;;;;2.17;2.13;;;;;;;19.78;92.38;99471.28;5047889;28;20206;-67
2022/06/20 01:03:11;;;;;;;2.63;2.43;;;;;;;19.66;92.58;99450.44;5051499;28;20215;-67
2022/06/20 01:05:46;;;;;;;2.57;2.47;;;;;;;19.71;93.08;99470.00;5053028;28;20232;-67
2022/06/20 01:08:19;;;;;;;2.13;2.03;;;;;;;19.65;93.67;99461.78;5046854;28;20207;-67
2022/06/20 01:10:50;;;;;;;2.43;2.33;;;;;;;19.52;93.72;99447.91;5034101;28;20199;-67
2022/06/20 01:13:21;;;;;;;5.03;2.77;;;;;;;19.57;93.71;99462.31;5033850;28;20212;-67
2022/06/20 01:15:50;;;;;;;2.60;2.47;;;;;;;19.38;94.02;99447.06;5033957;28;20207;-67
2022/06/20 01:18:22;;;;;;;2.40;2.30;;;;;;;19.43;94.16;99454.56;5048632;28;20700;-67
2022/06/20 01:20:53;;;;;;;2.23;2.13;;;;;;;19.44;94.82;99456.25;5043093;28;20636;-67
2022/06/20 01:23:34;;;;;;;2.63;2.53;;;;;;;19.44;95.41;99455.41;5033836;28;20206;-67
2022/06/20 01:26:31;;;;;;;2.67;2.57;;;;;;;19.44;95.70;99458.00;5052556;28;20686;-66
2022/06/20 01:29:03;;;;;;;2.07;1.97;;;;;;;19.41;95.43;99456.44;5052764;28;20194;-67
2022/06/20 01:31:36;;;;;;;2.07;1.97;;;;;;;19.39;95.23;99445.25;5053591;28;20193;-67
2022/06/20 01:34:03;;;;;;;4.60;2.63;;;;;;;19.34;95.52;99452.53;5053110;28;20692;-66
2022/06/20 01:39:18;;;;;;;2.57;2.30;;;;;;;19.23;95.64;99452.38;5053391;28;20306;-67
2022/06/20 01:44:36;;;;;;;2.67;2.57;;;;;;;19.10;95.89;99441.13;5053253;28;20202;-67
2022/06/20 01:47:03;;;;;;;2.47;2.30;;;;;;;19.14;96.32;99443.44;5053071;28;20199;-66
2022/06/20 01:49:32;;;;;;;2.40;2.30;;;;;;;19.14;95.98;99440.81;5049643;28;20210;-66
2022/06/20 01:52:06;;;;;;;2.33;2.23;;;;;;;19.14;96.10;99447.78;5033633;28;20205;-67
2022/06/20 01:54:36;;;;;;;2.47;2.37;;;;;;;19.13;96.22;99443.50;5047419;28;20221;-67
2022/06/20 01:57:06;;;;;;;2.37;2.27;;;;;;;19.04;96.05;99438.91;5052435;28;20211;-66
2022/06/20 01:59:40;;;;;;;2.30;2.20;;;;;;;19.06;95.75;99444.84;5052243;28;20676;-66
2022/06/20 02:02:07;;;;;;;2.67;2.57;;;;;;;18.96;95.98;99444.63;5052695;28;20208;-66
2022/06/20 02:04:36;;;;;;;3.40;2.50;;;;;;;18.94;96.15;99445.63;5047923;28;20215;-67
2022/06/20 02:07:06;;;;;;;2.13;2.03;;;;;;;18.93;96.00;99449.16;5035426;28;20632;-67
2022/06/20 02:09:33;;;;;;;2.70;2.60;;;;;;;18.94;96.31;99440.41;5032600;28;20547;-66
2022/06/20 02:12:01;;;;;;;7.53;2.53;;;;;;;18.95;96.38;99442.94;5033184;28;20573;-67
2022/06/20 02:14:34;;;;;;;2.53;2.43;;;;;;;18.86;96.94;99428.78;5051596;28;20711;-66
2022/06/20 02:17:13;;;;;;;2.30;2.20;;;;;;;18.83;97.37;99434.16;5052733;28;20204;-67
2022/06/20 02:19:45;;;;;;;2.50;2.40;;;;;;;18.76;97.15;99422.50;5047661;28;20200;-67
2022/06/20 02:22:12;;;;;;;2.40;2.30;;;;;;;18.69;97.08;99416.03;5050284;28;20797;-67
2022/06/20 02:24:44;;;;;;;2.60;2.50;;;;;;;18.76;96.84;99432.88;5047295;28;20691;-67
2022/06/20 02:27:14;;;;;;;2.80;2.47;;;;;;;18.67;96.92;99430.88;5052424;28;20692;-67
2022/06/20 02:29:41;;;;;;;2.43;2.33;;;;;;;18.63;96.83;99437.19;5052610;28;20576;-67
2022/06/20 02:32:13;;;;;;;2.60;2.50;;;;;;;18.60;96.74;99431.34;5052288;28;20193;-67
2022/06/20 02:34:40;;;;;;;2.50;2.40;;;;;;;18.59;96.49;99434.84;5052106;28;20216;-67
2022/06/20 02:37:11;;;;;;;2.90;2.70;;;;;;;18.56;96.08;99425.50;5052170;28;20723;-67
2022/06/20 02:39:40;;;;;;;2.47;2.37;;;;;;;18.52;96.74;99426.63;5052243;28;20203;-67
2022/06/20 02:42:11;;;;;;;2.57;2.47;;;;;;;18.45;96.60;99407.13;5052334;28;20204;-67
2022/06/20 02:44:39;;;;;;;2.30;2.20;;;;;;;18.50;96.49;99420.69;5048987;28;20742;-67
2022/06/20 02:47:09;;;;;;;3.03;2.93;;;;;;;18.55;96.03;99421.22;5043164;28;20210;-67
2022/06/20 02:49:38;;;;;;;2.97;2.50;;;;;;;18.53;96.39;99417.91;5031575;28;20208;-67
2022/06/20 02:52:08;;;;;;;2.63;2.47;;;;;;;18.53;95.67;99417.91;5031986;28;20202;-67
2022/06/20 02:54:37;;;;;;;2.80;2.70;;;;;;;18.51;95.82;99416.34;5039235;28;20224;-66
2022/06/20 02:57:11;;;;;;;2.37;2.27;;;;;;;18.49;95.97;99421.59;5050761;28;20205;-67
2022/06/20 02:59:43;;;;;;;2.60;2.40;;;;;;;18.47;97.25;99426.06;5051420;28;20204;-66
2022/06/20 03:02:13;;;;;;;2.90;2.70;;;;;;;18.45;97.50;99433.06;5051828;28;20204;-67
2022/06/20 03:04:45;;;;;;;2.67;2.57;;;;;;;18.21;97.79;99387.88;5051602;28;20204;-66
2022/06/20 03:07:15;;;;;;;2.60;2.50;;;;;;;18.41;97.79;99425.59;5051723;28;20676;-67
2022/06/20 03:09:45;;;;;;;2.77;2.50;;;;;;;18.32;98.36;99416.59;5051362;28;20250;-67
2022/06/20 03:12:13;;;;;;;3.17;3.07;;;;;;;18.29;98.89;99427.16;5051841;28;20665;-67
2022/06/20 03:14:43;;;;;;;2.53;2.43;;;;;;;18.12;99.63;99414.41;5051654;28;20221;-66
2022/06/20 03:17:11;;;;;;;3.30;3.10;;;;;;;18.14;99.94;99428.09;5048153;28;20205;-67
2022/06/20 03:19:43;;;;;;;3.00;2.90;;;;;;;18.05;100.00;99423.47;5051186;28;20211;-66
2022/06/20 03:22:14;;;;;;;3.40;3.20;;;;;;;17.98;100.00;99415.22;5051602;28;20193;-66
2022/06/20 03:24:43;;;;;;;3.43;3.10;;;;;;;17.88;100.00;99410.66;5031355;28;20662;-66
2022/06/20 03:27:13;;;;;;;2.87;2.77;;;;;;;17.90;100.00;99425.22;5031624;28;20221;-67
2022/06/20 03:29:44;;;;;;;2.87;2.67;;;;;;;17.94;100.00;99426.69;5031272;28;20197;-66
2022/06/20 03:32:11;;;;;;;2.70;2.50;;;;;;;18.00;100.00;99420.31;5047034;28;20204;-66
2022/06/20 03:34:38;;;;;;;2.97;2.80;;;;;;;18.09;100.00;99419.78;5051077;28;20227;-66
2022/06/20 03:37:07;;;;;;;7.10;2.80;;;;;;;18.20;99.91;99418.19;5050941;28;20232;-67
2022/06/20 03:39:35;;;;;;;2.83;2.57;;;;;;;18.33;98.58;99423.47;5051258;28;20292;-67
2022/06/20 03:42:04;;;;;;;3.10;2.90;;;;;;;18.35;98.16;99421.63;5050984;28;20196;-67
2022/06/20 03:44:35;;;;;;;2.80;2.70;;;;;;;18.42;97.94;99417.69;5051298;28;20320;-67
2022/06/20 03:47:06;;;;;;;2.57;2.47;;;;;;;18.49;97.59;99424.19;5051042;28;20656;-67
2022/06/20 03:49:37;;;;;;;2.90;2.70;;;;;;;18.64;97.95;99427.63;5050945;28;20751;-67
2022/06/20 03:52:11;;;;;;;2.87;2.77;;;;;;;18.84;97.96;99425.44;5049943;28;20588;-67
2022/06/20 03:54:43;;;;;;;8.97;3.40;;;;;;;19.09;96.96;99424.72;5047967;28;20229;-67
2022/06/20 03:57:17;;;;;;;4.53;3.50;;;;;;;19.20;94.95;99416.19;5050645;28;20207;-67
2022/06/20 03:59:49;;;;;;;2.83;2.17;;;;;;;19.39;93.28;99416.66;5050919;28;20686;-67
2022/06/20 04:02:23;;;;;;;3.57;3.30;;;;;;;19.62;92.99;99418.59;5050821;28;20206;-67
2022/06/20 04:04:57;;;;;;;2.83;2.67;;;;;;;19.80;92.90;99412.19;5049844;28;20203;-66
2022/06/20 04:07:30;;;;;;;2.63;2.53;;;;;;;20.03;92.34;99415.00;5051013;28;20278;-67
2022/06/20 04:12:54;;;;;;;2.30;2.20;;;;;;;20.52;89.67;99418.47;5034606;28;20206;-67
2022/06/20 04:15:27;;;;;;;4.50;2.80;;;;;;;20.70;86.58;99414.56;5050822;28;20588;-67
2022/06/20 04:20:50;;;;;;;2.30;2.10;;;;;;;21.09;84.12;99428.28;5050741;28;20572;-67
2022/06/20 04:23:24;;;;;;;3.00;2.80;;;;;;;21.23;84.23;99412.47;5050756;28;20207;-68
2022/06/20 04:25:55;;;;;;;2.43;2.33;;;;;;;21.56;85.13;99425.63;5050306;28;20199;-67
2022/06/20 04:28:31;;;;;;;3.57;2.20;;;;;;;21.83;84.48;99420.94;5050616;28;20199;-68
2022/06/20 04:31:13;;;;;;;2.40;2.30;;;;;;;22.10;83.26;99414.59;5050731;28;20291;-67
2022/06/20 04:33:43;;;;;;;2.43;2.30;;;;;;;22.34;79.13;99417.91;5047556;28;20197;-67
2022/06/20 04:36:23;;;;;;;1.97;1.70;;;;;;;22.52;77.84;99411.22;5050240;28;20208;-67
2022/06/20 04:39:00;;;;;;;2.07;1.97;;;;;;;22.70;76.33;99409.81;5050419;28;20235;-67
2022/06/20 04:41:36;;;;;;;2.43;2.33;;;;;;;22.83;72.64;99415.72;5050540;28;20212;-67
2022/06/20 04:44:13;;;;;;;1.90;1.80;;;;;;;22.94;73.26;99417.50;5050336;28;20220;-66
2022/06/20 04:46:46;;;;;;;1.63;1.60;;;;;;;23.02;71.38;99415.91;5050776;28;20672;-67
2022/06/20 04:49:15;;;;;;;2.10;2.00;;;;;;;23.08;70.89;99418.97;5036887;28;20683;-67
2022/06/20 04:51:46;;;;;;;2.43;1.60;;;;;;;22.96;68.68;99394.66;5049420;28;20692;-68
2022/06/20 04:54:19;;;;;;;1.90;1.80;;;;;;;22.98;70.20;99414.47;5049617;28;20793;-67
2022/06/20 04:56:48;;;;;;;2.50;2.40;;;;;;;22.88;69.59;99407.50;5050507;28;20665;-68
2022/06/20 04:59:19;;;;;;;4.10;1.80;;;;;;;22.86;71.69;99399.78;5050142;28;20288;-68
2022/06/20 05:01:46;;;;;;;2.57;2.37;;;;;;;22.99;68.81;99408.31;5050544;28;20197;-68
2022/06/20 05:04:25;;;;;;;2.47;2.10;;;;;;;22.93;70.55;99406.19;5049863;28;20200;-67
2022/06/20 05:06:53;;;;;;;8.70;2.83;;;;;;;22.89;71.95;99399.53;5050321;28;20250;-68
2022/06/20 05:09:29;;;;;;;1.67;1.67;;;;;;;23.07;70.50;99409.47;5050153;28;20197;-67
2022/06/20 05:12:06;;;;;;;1.67;1.57;;;;;;;23.29;69.85;99404.16;5050347;28;20203;-67
2022/06/20 05:14:43;;;;;;;1.90;1.80;;;;;;;23.41;67.14;99390.09;5050073;28;22049;-68
2022/06/20 05:17:20;;;;;;;1.60;1.60;;;;;;;23.66;69.81;99401.94;5052331;28;20204;-68
2022/06/20 05:19:50;;;;;;;1.73;1.60;;;;;;;23.96;69.74;99404.59;5049478;28;20208;-68
2022/06/20 05:22:20;;;;;;;2.10;2.00;;;;;;;24.04;67.07;99408.22;5044968;28;20669;-68
2022/06/20 05:24:51;;;;;;;2.20;2.10;;;;;;;24.12;67.97;99412.84;5053976;28;20254;-68
2022/06/20 05:27:23;;;;;;;1.87;1.80;;;;;;;24.23;66.00;99414.53;5053252;28;20719;-67
2022/06/20 05:29:53;;;;;;;1.80;1.80;;;;;;;24.41;67.36;99407.69;5054086;28;20327;-68
2022/06/20 05:32:28;;;;;;;1.67;1.67;;;;;;;24.62;67.89;99405.00;5053219;28;20215;-67
2022/06/20 05:35:00;;;;;;;1.87;1.80;;;;;;;24.77;65.03;99414.97;5053422;28;20208;-68
2022/06/20 05:37:36;;;;;;;1.97;1.87;;;;;;;24.76;64.50;99408.06;5052510;28;20217;-67
2022/06/20 05:40:11;;;;;;;2.00;1.90;;;;;;;24.88;66.45;99417.47;5053314;28;20202;-68
2022/06/20 05:42:38;;;;;;;2.07;1.97;;;;;;;25.04;66.73;99411.72;5053502;28;20196;-67
2022/06/20 05:45:14;;;;;;;2.30;2.20;;;;;;;25.31;65.69;99413.63;5053163;28;20204;-68
2022/06/20 05:47:42;;;;;;;8.00;2.33;;;;;;;25.42;63.91;99416.97;5052636;28;20600;-68
2022/06/20 05:50:24;;;;;;;2.03;1.83;;;;;;;25.42;62.21;99416.97;5047679;28;20201;-68
2022/06/20 05:52:52;;;;;;;3.77;2.10;;;;;;;25.62;63.87;99412.53;5053382;28;20220;-68
2022/06/20 05:55:25;;;;;;;5.60;1.90;;;;;;;25.71;62.72;99395.09;5053182;28;20228;-68
2022/06/20 05:57:52;;;;;;;1.83;1.83;;;;;;;25.86;62.86;99399.75;5052866;28;20200;-68
2022/06/20 06:00:21;;;;;;;1.90;1.90;;;;;;;26.15;61.66;99404.06;5052981;28;20270;-68
2022/06/20 06:02:51;;;;;;;1.93;1.83;;;;;;;26.31;62.29;99409.56;5053072;28;20201;-68
2022/06/20 06:05:22;;;;;;;1.73;1.73;;;;;;;26.45;61.31;99404.66;5053006;28;20672;-68
2022/06/20 06:07:58;;;;;;;1.60;1.60;;;;;;;26.71;58.00;99396.06;5052920;28;20201;-68
2022/06/20 06:10:37;;;;;;;2.73;2.20;;;;;;;26.89;57.69;99400.38;5052673;28;20576;-67
2022/06/20 06:13:15;;;;;;;1.90;1.80;;;;;;;27.12;58.83;99398.13;5052796;28;20200;-68
2022/06/20 06:18:37;;;;;;;3.63;2.23;;;;;;;27.28;57.54;99389.53;5052596;28;20193;-68
2022/06/20 06:21:04;;;;;;;2.97;2.17;;;;;;;27.34;55.98;99391.56;5052760;28;20204;-68
2022/06/20 06:23:31;;;;;;;7.23;2.00;;;;;;;27.50;55.23;99368.00;5052495;28;20211;-68
2022/06/20 06:25:59;;;;;;;1.83;1.73;;;;;;;27.86;56.63;99382.72;5052560;28;20204;-68
2022/06/20 06:28:28;;;;;;;2.00;1.70;;;;;;;28.03;54.55;99381.84;5051655;28;20200;-68
2022/06/20 06:31:00;;;;;;;6.43;1.90;;;;;;;28.17;56.11;99372.56;5052205;28;20228;-68
2022/06/20 06:33:31;;;;;;;1.70;1.60;;;;;;;28.51;53.22;99375.13;5052336;28;20204;-68
2022/06/20 06:36:04;;;;;;;1.77;1.70;;;;;;;28.78;51.46;99382.81;5051962;28;20217;-68
2022/06/20 06:38:37;;;;;;;1.63;1.63;;;;;;;29.01;51.48;99383.84;5052287;28;20228;-68
2022/06/20 06:41:13;;;;;;;2.33;2.23;;;;;;;29.17;48.97;99383.84;5052413;28;20219;-68
2022/06/20 06:43:44;;;;;;;1.77;1.67;;;;;;;29.41;52.00;99384.84;5052017;28;20206;-68
2022/06/20 06:46:19;;;;;;;2.25;1.98;;;;;;;29.50;51.54;99386.50;5050081;28;20193;-69
2022/06/20 06:48:51;;;;;;;1.98;1.88;;;;;;;29.50;50.01;99375.94;5048463;28;20900;-68
2022/06/20 06:51:26;;;;;;;1.70;1.60;;;;;;;29.59;48.51;99372.28;5052310;28;20656;-68
2022/06/20 06:53:59;;;;;;;1.60;1.55;;;;;;;29.63;51.54;99366.47;5051768;28;20192;-68
2022/06/20 06:56:34;;;;;;;1.77;1.67;;;;;;;29.74;50.05;99365.31;5052111;28;20220;-68
2022/06/20 06:59:09;;;;;;;1.45;1.45;;;;;;;29.87;48.53;99363.00;5051709;28;20200;-68
2022/06/20 07:01:41;;;;;;;1.70;1.48;;;;;;;30.03;44.66;99359.47;5052021;28;20196;-68
2022/06/20 07:04:17;;;;;;;1.90;1.70;;;;;;;30.10;46.48;99349.88;5051801;28;20200;-68
2022/06/20 07:06:49;;;;;;;1.55;1.55;;;;;;;30.08;46.15;99350.03;5052024;28;20199;-69
2022/06/20 07:09:22;;;;;;;1.83;1.73;;;;;;;30.25;47.99;99352.59;5051836;28;20562;-68
2022/06/20 07:11:59;;;;;;;1.50;1.50;;;;;;;30.36;47.87;99352.22;5051971;28;20572;-68
2022/06/20 07:14:25;;;;;;;1.73;1.63;;;;;;;30.45;45.95;99353.84;5051606;28;20207;-68
2022/06/20 07:16:58;;;;;;;1.50;1.50;;;;;;;30.55;47.81;99339.41;5051571;28;20197;-68
2022/06/20 07:19:27;;;;;;;2.53;1.55;;;;;;;30.42;46.08;99335.69;5051709;28;20203;-68
2022/06/20 07:21:57;;;;;;;2.00;1.90;;;;;;;30.55;45.94;99333.28;5051480;28;20661;-68
2022/06/20 07:24:28;;;;;;;2.10;2.00;;;;;;;30.54;48.18;99337.75;5051328;28;20196;-68
2022/06/20 07:27:01;;;;;;;1.63;1.63;;;;;;;30.53;46.02;99330.00;5051516;28;20201;-68
2022/06/20 07:29:33;;;;;;;1.77;1.67;;;;;;;30.73;47.59;99325.06;5051492;28;20192;-68
2022/06/20 07:32:04;;;;;;;2.10;2.00;;;;;;;30.89;44.37;99330.25;5051239;28;20216;-68
2022/06/20 07:34:36;;;;;;;2.15;2.05;;;;;;;31.06;45.16;99327.31;5051201;28;20196;-68
2022/06/20 07:37:10;;;;;;;1.70;1.60;;;;;;;31.27;45.04;99331.09;5051025;28;20228;-67
2022/06/20 07:39:43;;;;;;;2.00;1.70;;;;;;;31.38;44.73;99318.22;5051392;28;20203;-68
2022/06/20 07:42:17;;;;;;;1.50;1.50;;;;;;;31.77;45.08;99315.34;5047062;28;20215;-67
2022/06/20 07:44:50;;;;;;;2.15;1.95;;;;;;;31.69;45.24;99318.94;5050443;28;20199;-68
2022/06/20 07:47:21;;;;;;;2.10;2.00;;;;;;;31.92;43.18;99318.00;5050496;28;20208;-67
2022/06/20 07:49:53;;;;;;;1.58;1.58;;;;;;;31.86;43.55;99298.34;5051407;28;20584;-68
2022/06/20 07:52:24;;;;;;;1.60;1.50;;;;;;;32.14;44.58;99306.47;5040918;28;20197;-67
2022/06/20 07:54:56;;;;;;;5.50;1.95;;;;;;;32.30;43.53;99310.75;5031248;28;20715;-68
2022/06/20 07:57:29;;;;;;;1.52;1.50;;;;;;;32.16;41.72;99305.28;5030761;28;20201;-68
2022/06/20 08:00:03;;;;;;;1.80;1.70;;;;;;;32.10;42.21;99284.81;5046999;28;20297;-68
2022/06/20 08:02:36;;;;;;;1.90;1.80;;;;;;;32.24;41.37;99305.19;5050761;28;20287;-68
2022/06/20 08:05:04;;;;;;;2.47;1.92;;;;;;;32.36;41.37;99296.72;5035733;28;20197;-68
2022/06/20 08:07:36;;;;;;;1.80;1.70;;;;;;;32.43;41.39;99298.44;5030870;28;20457;-67
2022/06/20 08:10:10;;;;;;;1.70;1.70;;;;;;;32.42;44.35;99295.97;5031024;28;20201;-68
2022/06/20 08:12:42;;;;;;;1.50;1.50;;;;;;;32.70;43.22;99294.22;5050448;28;20252;-68
2022/06/20 08:15:15;;;;;;;1.90;1.80;;;;;;;32.83;46.35;99302.31;5050890;28;20708;-68
2022/06/20 08:17:42;;;;;;;1.73;1.70;;;;;;;32.87;43.44;99295.63;5050893;28;20210;-68
2022/06/20 08:20:11;;;;;;;1.55;1.55;;;;;;;32.63;40.08;99288.06;5050632;28;20207;-68
2022/06/20 08:22:47;;;;;;;5.57;3.47;;;;;;;32.78;42.03;99296.75;5050658;28;20200;-68
2022/06/20 08:25:20;;;;;;;3.28;1.60;;;;;;;32.88;41.23;99293.78;5050582;28;20223;-68
2022/06/20 08:27:55;;;;;;;2.08;1.98;;;;;;;32.97;44.59;99293.47;5050917;28;20203;-68
2022/06/20 08:30:33;;;;;;;2.50;2.35;;;;;;;33.04;44.98;99294.34;5050809;28;20683;-68
2022/06/20 08:33:06;;;;;;;2.33;2.22;;;;;;;33.04;43.50;99299.66;5050699;28;20199;-68
2022/06/20 08:35:39;;;;;;;1.80;1.70;;;;;;;32.94;40.19;99291.19;5050630;28;20735;-68
2022/06/20 08:38:12;;;;;;;4.10;3.67;;;;;;;33.10;41.92;99296.25;5049824;28;20781;-68
2022/06/20 08:41:08;;;;;;;7.40;5.00;;;;;;;33.05;38.27;99295.16;5049203;28;20209;-68
2022/06/20 08:44:00;;;;;;;4.75;3.67;;;;;;;33.02;34.56;99296.34;5049627;28;20197;-68
2022/06/20 08:47:00;;;;;;;2.42;2.33;;;;;;;33.02;35.14;99301.66;5049961;28;20201;-68
2022/06/20 08:50:00;;;;;;;6.15;4.35;;;;;;;32.74;41.23;99280.41;5049607;28;20689;-68
2022/06/20 08:53:12;;;;;;;2.28;1.45;;;;;;;32.79;35.53;99295.75;5053481;28;20576;-68
2022/06/20 08:56:00;;;;;;;1.88;1.55;;;;;;;32.66;35.59;99295.63;5053943;28;20228;-68
2022/06/20 08:58:37;;;;;;;1.33;1.33;;;;;;;32.46;33.51;99294.59;5054193;28;20668;-68
2022/06/20 09:01:13;;;;;;;1.25;1.25;;;;;;;32.15;34.36;99295.66;5054422;28;20192;-67
2022/06/20 09:04:08;;;;;;;1.10;1.10;;;;;;;32.59;36.70;99292.09;5053808;28;20568;-67
2022/06/20 09:07:04;;;;;;;1.15;1.15;;;;;;;32.60;36.13;99278.63;5054143;28;20192;-67
2022/06/20 09:09:46;;;;;;;1.58;1.20;;;;;;;32.40;35.63;99282.06;5054192;28;20580;-68
2022/06/20 09:12:32;;;;;;;5.82;1.40;;;;;;;32.61;40.47;99279.44;5054100;28;20220;-68
2022/06/20 09:15:15;;;;;;;1.83;1.17;;;;;;;32.81;33.77;99282.28;5053812;28;20207;-69
2022/06/20 09:17:57;;;;;;;0.90;0.90;;;;;;;33.02;33.47;99275.09;5053704;28;20565;-68
2022/06/20 09:20:34;;;;;;;1.23;1.08;;;;;;;33.21;34.42;99277.13;5054067;28;20665;-69
2022/06/20 09:23:13;;;;;;;2.15;1.08;;;;;;;33.15;32.24;99264.59;5053718;28;20200;-68
2022/06/20 09:25:52;;;;;;;0.85;0.85;;;;;;;33.06;34.69;99271.03;5033946;28;20212;-67
2022/06/20 09:28:45;;;;;;;0.93;0.93;;;;;;;32.92;32.87;99271.97;5033845;28;20220;-68
2022/06/20 09:31:31;;;;;;;2.63;1.02;;;;;;;32.85;32.90;99263.13;5047621;28;20204;-68
2022/06/20 09:34:13;;;;;;;1.00;1.00;;;;;;;32.95;32.40;99265.44;5034706;28;20202;-68
2022/06/20 09:37:21;;;;;;;0.70;0.70;;;;;;;33.26;34.29;99261.41;5048403;28;20224;-67
2022/06/20 09:40:03;;;;;;;0.95;0.95;;;;;;;33.46;30.29;99253.56;5052418;28;20565;-67
2022/06/20 09:42:38;;;;;;;0.65;0.65;;;;;;;33.60;31.97;99259.78;5051887;28;20232;-67
2022/06/20 09:45:14;;;;;;;0.80;0.80;;;;;;;33.49;28.54;99252.34;5053307;28;20207;-67
2022/06/20 09:47:57;;;;;;;0.80;0.80;;;;;;;33.07;29.83;99254.09;5053467;28;20668;-68
2022/06/20 09:50:38;;;;;;;1.23;1.20;;;;;;;33.18;30.90;99248.25;5053837;28;20207;-68
2022/06/20 09:53:20;;;;;;;0.93;0.93;;;;;;;33.20;31.91;99248.09;5033208;28;20201;-67
2022/06/20 09:55:58;;;;;;;0.80;0.80;;;;;;;33.28;34.72;99248.75;5033179;28;20217;-67
2022/06/20 09:58:31;;;;;;;0.93;0.93;;;;;;;33.22;33.87;99230.09;5048985;28;20661;-67
2022/06/20 10:01:07;;;;;;;0.70;0.70;;;;;;;33.21;32.72;99242.59;5032939;28;20197;-67
2022/06/20 10:03:43;;;;;;;1.00;1.00;;;;;;;33.39;33.75;99233.28;5031869;28;20197;-68
2022/06/20 10:06:22;;;;;;;1.00;0.95;;;;;;;33.52;34.57;99233.34;5052037;28;20199;-68
2022/06/20 10:09:03;;;;;;;0.98;0.98;;;;;;;33.74;34.83;99225.09;5052771;28;20201;-68
2022/06/20 10:11:39;;;;;;;1.20;1.20;;;;;;;33.82;34.82;99224.09;5053144;28;20268;-68
2022/06/20 10:14:13;;;;;;;0.88;0.88;;;;;;;33.76;34.12;99208.94;5032397;28;20728;-67
2022/06/20 10:16:48;;;;;;;1.98;1.08;;;;;;;33.46;32.86;99212.88;5032490;28;20743;-68
2022/06/20 10:19:30;;;;;;;1.00;1.00;;;;;;;33.26;30.53;99218.91;5033003;28;20193;-67
2022/06/20 10:22:11;;;;;;;1.08;0.95;;;;;;;33.31;31.21;99206.88;5048857;28;20197;-68
2022/06/20 10:24:53;;;;;;;0.93;0.93;;;;;;;32.92;31.39;99205.59;5052780;28;20718;-68
2022/06/20 10:27:52;;;;;;;0.88;0.88;;;;;;;32.42;32.14;99203.09;5046187;28;20196;-67
2022/06/20 10:30:21;;;;;;;0.68;0.68;;;;;;;32.12;30.65;99208.50;5040458;28;20200;-67
2022/06/20 10:32:55;;;;;;;2.67;1.20;;;;;;;32.01;30.85;99201.03;5052765;28;20224;-68
2022/06/20 10:35:37;;;;;;;0.75;0.75;;;;;;;32.37;32.57;99202.84;5049342;28;20259;-67
2022/06/20 10:38:09;;;;;;;1.00;1.00;;;;;;;32.58;32.44;99203.69;5050099;28;20294;-68
2022/06/20 10:40:46;;;;;;;0.70;0.70;;;;;;;32.19;31.98;99204.09;5050621;28;20664;-68
2022/06/20 10:43:26;;;;;;;0.90;0.90;;;;;;;32.06;31.26;99203.97;5051837;28;20207;-67
2022/06/20 10:45:59;;;;;;;1.17;1.17;;;;;;;32.15;31.90;99196.72;5045769;28;20197;-67
2022/06/20 10:49:00;;;;;;;1.02;1.02;;;;;;;32.40;32.11;99200.63;5045834;28;20203;-67
2022/06/20 10:51:37;;;;;;;0.82;0.82;;;;;;;32.52;31.34;99204.41;5052050;28;20205;-67
2022/06/20 10:54:18;;;;;;;0.80;0.80;;;;;;;32.50;31.18;99195.81;5051929;28;20208;-67
2022/06/20 10:56:54;;;;;;;0.70;0.70;;;;;;;32.47;31.27;99180.28;5051942;28;20212;-67
2022/06/20 10:59:37;;;;;;;1.00;1.00;;;;;;;32.82;32.99;99183.03;5032822;28;20193;-67
2022/06/20 11:02:18;;;;;;;0.90;0.90;;;;;;;32.53;32.95;99179.53;5031794;28;20201;-67
2022/06/20 11:05:02;;;;;;;1.65;0.93;;;;;;;32.60;30.96;99180.41;5031947;28;20209;-67
2022/06/20 11:07:37;;;;;;;1.10;1.00;;;;;;;32.76;34.08;99174.00;5051467;28;20196;-67
2022/06/20 11:10:24;;;;;;;0.82;0.82;;;;;;;32.84;30.37;99171.19;5051602;28;20269;-68
2022/06/20 11:13:01;;;;;;;0.88;0.88;;;;;;;33.00;31.59;99170.88;5051878;28;20200;-67
2022/06/20 11:15:39;;;;;;;0.98;0.98;;;;;;;33.06;32.33;99162.13;5051099;28;20235;-67
2022/06/20 11:18:24;;;;;;;1.20;1.20;;;;;;;33.20;32.57;99168.38;5051617;28;20212;-67
2022/06/20 11:20:58;;;;;;;1.10;1.10;;;;;;;32.82;31.48;99167.91;5051851;28;20279;-68
2022/06/20 11:23:32;;;;;;;0.90;0.90;;;;;;;32.29;29.97;99165.81;5051269;28;20584;-67
2022/06/20 11:26:07;;;;;;;1.60;0.95;;;;;;;32.43;32.00;99155.13;5051456;28;20192;-67
2022/06/20 11:28:59;;;;;;;0.90;0.90;;;;;;;32.63;31.17;99163.28;5051285;28;20208;-67
2022/06/20 11:31:38;;;;;;;1.02;1.02;;;;;;;32.68;32.85;99160.88;5051243;28;20193;-67
2022/06/20 11:34:27;;;;;;;2.05;0.80;;;;;;;32.87;31.59;99146.91;5050557;28;20200;-67
2022/06/20 11:37:15;;;;;;;0.90;0.90;;;;;;;32.69;30.02;99154.56;5049850;28;20221;-67
2022/06/20 11:40:03;;;;;;;0.80;0.80;;;;;;;32.79;31.51;99147.06;5050251;28;20200;-67
2022/06/20 11:42:57;;;;;;;0.93;0.93;;;;;;;32.78;31.97;99144.59;5050772;28;20200;-67
2022/06/20 11:45:40;;;;;;;0.75;0.75;;;;;;;32.81;31.25;99147.69;5051215;28;20209;-67
2022/06/20 11:48:29;;;;;;;1.08;1.08;;;;;;;32.80;29.52;99150.53;5051384;28;20196;-67
2022/06/20 11:51:04;;;;;;;1.00;1.00;;;;;;;32.84;31.54;99122.56;5048707;28;20204;-67
2022/06/20 11:53:47;;;;;;;1.00;1.00;;;;;;;33.05;34.90;99136.59;5050642;28;20205;-66
2022/06/20 11:56:22;;;;;;;0.75;0.75;;;;;;;32.94;31.57;99131.84;5050990;28;20227;-67
2022/06/20 11:59:04;;;;;;;4.00;0.90;;;;;;;32.73;30.76;99132.72;5050855;28;20196;-67
2022/06/20 12:01:38;;;;;;;1.33;0.98;;;;;;;32.83;30.74;99132.38;5051181;28;20204;-67
2022/06/20 12:04:14;;;;;;;1.00;1.00;;;;;;;32.96;33.09;99121.81;5051078;28;20604;-67
2022/06/20 12:06:45;;;;;;;1.02;1.02;;;;;;;32.93;32.22;99116.06;5050491;28;20204;-67
2022/06/20 12:09:20;;;;;;;0.95;0.95;;;;;;;32.73;30.06;99095.53;5051086;28;20552;-67
2022/06/20 12:12:02;;;;;;;1.35;1.25;;;;;;;32.87;32.43;99107.06;5050305;28;20669;-67
2022/06/20 12:14:40;;;;;;;1.00;0.98;;;;;;;32.79;30.73;99109.91;5050680;28;20209;-67
2022/06/20 12:17:24;;;;;;;0.70;0.70;;;;;;;32.81;31.45;99109.69;5050774;28;20212;-67
2022/06/20 12:23:21;;;;;;;1.77;0.90;;;;;;;32.55;30.98;99105.00;5029537;28;20205;-67
2022/06/20 12:25:52;;;;;;;0.80;0.80;;;;;;;32.53;29.04;99104.38;5050826;28;20193;-67